This is the latest recevied weather packets stored in our database for station/object SP2FH-13. If no packets are shown the sender has not sent any weather packets the latest 10 day(s).
| Time | Temp. | Humidity | Pressure | Rain* | Wind** | Luminosity | Snow |
|---|---|---|---|---|---|---|---|
| 1777312082 | 8.89° C | 41% | 1010.7 hPa | - | - | 6 W/m² | - |
| 1777311480 | 9.44° C | 40% | 1010.7 hPa | - | - | 12 W/m² | - |
| 1777310877 | 10° C | 39% | 1010.6 hPa | - | - | 18 W/m² | - |
| 1777310276 | 10° C | 39% | 1010.4 hPa | - | - | 24 W/m² | - |
| 1777309673 | 10.56° C | 38% | 1010.4 hPa | - | - | 39 W/m² | - |
| 1777309072 | 10.56° C | 38% | 1010.3 hPa | - | - | 36 W/m² | - |
| 1777307566 | 11.11° C | 37% | 1010.1 hPa | - | - | 49 W/m² | - |
| 1777307265 | 11.11° C | 37% | 1010.2 hPa | - | - | 59 W/m² | - |
| 1777306963 | 11.67° C | 35% | 1010 hPa | - | - | 75 W/m² | - |
| 1777306361 | 11.67° C | 35% | 1009.9 hPa | - | - | 71 W/m² | - |
| 1777305758 | 12.78° C | 32% | 1009.6 hPa | - | - | 86 W/m² | - |
| 1777305456 | 12.78° C | 32% | 1009.7 hPa | - | - | 93 W/m² | - |
| 1777305155 | 12.22° C | 34% | 1009.7 hPa | - | - | 121 W/m² | - |
| 1777304854 | 12.22° C | 34% | 1009.7 hPa | - | - | 109 W/m² | - |
| 1777304251 | 11.67° C | 36% | 1009.7 hPa | - | - | 224 W/m² | - |
| 1777303950 | 11.67° C | 36% | 1009.9 hPa | - | - | 121 W/m² | - |
| 1777303648 | 11.67° C | 35% | 1010 hPa | - | - | 64 W/m² | - |
| 1777303347 | 11.67° C | 34% | 1010 hPa | - | - | 60 W/m² | - |
| 1777302445 | 11.67° C | 36% | 1010 hPa | - | - | 70 W/m² | - |
| 1777300638 | 11.67° C | 38% | 1010.2 hPa | - | - | 143 W/m² | - |
| 1777300336 | 11.67° C | 37% | 1010.3 hPa | - | - | 142 W/m² | - |
| 1777300035 | 12.22° C | 36% | 1010.3 hPa | - | - | 187 W/m² | - |
| 1777299734 | 11.67° C | 37% | 1010.4 hPa | - | - | 198 W/m² | - |
| 1777299433 | 11.67° C | 37% | 1010.4 hPa | - | - | 194 W/m² | - |
| 1777299132 | 11.67° C | 37% | 1010.4 hPa | - | - | 156 W/m² | - |
* Rain since midnight (hover to see other rain measurements)
** Current wind speed in m/s (hover to see current wind gust speed)